createdAt,value
2022-09-26T00:00:25.749Z,66.8571
2022-09-26T00:01:25.907Z,67
2022-09-26T00:02:25.858Z,66.9286
2022-09-26T00:03:25.836Z,67
2022-09-26T00:04:30.408Z,67
2022-09-26T00:05:25.941Z,67.0714
2022-09-26T00:06:25.957Z,67.0714
2022-09-26T00:07:26.009Z,67.1429
2022-09-26T00:08:26.021Z,67.2143
2022-09-26T00:09:26.083Z,67.2143
2022-09-26T00:10:26.099Z,67.3571
2022-09-26T00:11:26.130Z,67.5
2022-09-26T00:12:26.169Z,67.5
2022-09-26T00:13:26.201Z,67.5
2022-09-26T00:14:26.241Z,67.5
2022-09-26T00:15:26.287Z,67.4286
2022-09-26T00:16:26.363Z,67.5
2022-09-26T00:17:26.324Z,67.5
2022-09-26T00:18:26.386Z,67.5714
2022-09-26T00:19:26.386Z,67.5714
2022-09-26T00:20:26.434Z,67.5714
2022-09-26T00:21:26.467Z,67.6429
2022-09-26T00:22:26.503Z,67.7143
2022-09-26T00:23:26.561Z,67.6429
2022-09-26T00:24:26.577Z,67.5714
2022-09-26T00:25:26.608Z,67.6429
2022-09-26T00:26:26.644Z,67.5714
2022-09-26T00:27:26.680Z,67.5714
2022-09-26T00:28:26.746Z,67.5714
2022-09-26T00:29:26.764Z,67.5
2022-09-26T00:30:26.854Z,67.5
2022-09-26T00:31:26.834Z,67.5
2022-09-26T00:32:26.870Z,67.5
2022-09-26T00:33:26.941Z,67.5
2022-09-26T00:34:26.952Z,67.5714
2022-09-26T00:35:26.992Z,67.6429
2022-09-26T00:36:37.593Z,67.7143
2022-09-26T00:37:27.063Z,67.9286
2022-09-26T00:38:27.128Z,68
2022-09-26T00:39:27.139Z,68.0714
2022-09-26T00:40:27.302Z,68.0714
2022-09-26T00:41:27.218Z,68.2143
2022-09-26T00:42:27.256Z,68.2143
2022-09-26T00:43:27.313Z,68.2143
2022-09-26T00:44:27.343Z,68.2857
2022-09-26T00:45:27.353Z,68.3571
2022-09-26T00:46:27.462Z,68.3571
2022-09-26T00:47:27.439Z,68.3571
2022-09-26T00:48:27.475Z,68.2857
2022-09-26T00:49:27.529Z,68.2857
2022-09-26T00:50:27.549Z,68.3571
2022-09-26T00:51:27.583Z,68.3571
2022-09-26T00:52:27.619Z,68.3571
2022-09-26T00:53:27.657Z,68.4286
2022-09-26T00:54:27.721Z,68.5
2022-09-26T00:55:27.766Z,68.5714
2022-09-26T00:56:27.782Z,68.6429
2022-09-26T00:57:27.811Z,68.7143
2022-09-26T00:58:27.851Z,68.7857
2022-09-26T00:59:27.893Z,68.8571
2022-09-26T01:00:27.935Z,68.8571
2022-09-26T01:01:28.170Z,68.9286
2022-09-26T01:02:28.158Z,69
2022-09-26T01:03:28.035Z,69
2022-09-26T01:04:28.075Z,69.0714
2022-09-26T01:05:28.136Z,69.0714
2022-09-26T01:06:28.156Z,69.1429
2022-09-26T01:07:28.185Z,69.0714
2022-09-26T01:08:28.223Z,69.0714
2022-09-26T01:09:28.261Z,69.1429
2022-09-26T01:10:28.321Z,69.0714
2022-09-26T01:11:28.340Z,69.0714
2022-09-26T01:12:28.374Z,69.0714
2022-09-26T01:13:28.421Z,69.0714
2022-09-26T01:14:28.445Z,69
2022-09-26T01:15:28.497Z,69
2022-09-26T01:16:28.655Z,69
2022-09-26T01:17:28.546Z,69
2022-09-26T01:18:28.579Z,68.9286
2022-09-26T01:19:28.620Z,69
2022-09-26T01:20:28.648Z,69
2022-09-26T01:21:28.697Z,69
2022-09-26T01:22:28.715Z,69
2022-09-26T01:23:28.736Z,69.0714
2022-09-26T01:24:28.776Z,69.0714
2022-09-26T01:25:28.810Z,69
2022-09-26T01:26:28.864Z,68.9286
2022-09-26T01:27:28.874Z,68.8571
2022-09-26T01:28:28.899Z,68.7857
2022-09-26T01:29:28.929Z,68.7857
2022-09-26T01:30:29.021Z,68.7143
2022-09-26T01:31:29.014Z,68.7857
2022-09-26T01:32:29.030Z,68.7143
2022-09-26T01:33:29.079Z,68.7143
2022-09-26T01:34:29.118Z,68.7857
2022-09-26T01:35:29.167Z,68.8571
2022-09-26T01:36:29.179Z,68.9286
2022-09-26T01:37:29.230Z,68.9286
2022-09-26T01:38:29.239Z,68.9286
2022-09-26T01:39:29.278Z,68.9286
2022-09-26T01:40:29.364Z,69
2022-09-26T01:41:29.350Z,68.9286
2022-09-26T01:42:29.410Z,68.9286
2022-09-26T01:43:29.413Z,68.8571
2022-09-26T01:44:29.436Z,68.7857
2022-09-26T01:45:29.506Z,68.7143
2022-09-26T01:46:29.506Z,68.6429
2022-09-26T01:47:29.572Z,68.5714
2022-09-26T01:48:29.595Z,68.4286
2022-09-26T01:49:29.609Z,68.3571
2022-09-26T01:50:29.643Z,68.3571
2022-09-26T01:51:29.670Z,68.3571
2022-09-26T01:52:29.708Z,68.5
2022-09-26T01:53:29.774Z,68.4286
2022-09-26T01:54:29.781Z,68.3571
2022-09-26T01:55:29.819Z,68.3571
2022-09-26T01:56:29.855Z,68.3571
2022-09-26T01:57:29.916Z,68.2857
2022-09-26T01:58:29.929Z,68.2857
2022-09-26T01:59:29.974Z,68.2143
2022-09-26T02:00:29.992Z,68.2143
2022-09-26T02:01:30.231Z,68.1429
2022-09-26T02:02:30.151Z,68.2143
2022-09-26T02:03:30.102Z,68.1429
2022-09-26T02:04:30.137Z,68.2143
2022-09-26T02:05:30.178Z,68.2143
2022-09-26T02:06:30.238Z,68.1429
2022-09-26T02:07:30.256Z,68.2143
2022-09-26T02:08:30.289Z,68.2143
2022-09-26T02:09:30.325Z,68.2857
2022-09-26T02:10:30.400Z,68.2857
2022-09-26T02:11:30.397Z,68.2143
2022-09-26T02:12:30.437Z,68.1429
2022-09-26T02:13:30.461Z,68.1429
2022-09-26T02:14:30.498Z,68.1429
2022-09-26T02:15:30.557Z,68.1429
2022-09-26T02:16:30.614Z,68.1429
2022-09-26T02:17:30.617Z,68.2143
2022-09-26T02:18:30.657Z,68.1429
2022-09-26T02:19:30.691Z,68.1429
2022-09-26T02:20:30.745Z,68.2143
2022-09-26T02:21:30.758Z,68.1429
2022-09-26T02:22:30.785Z,68.2143
2022-09-26T02:23:30.857Z,68.2143
2022-09-26T02:24:30.863Z,68.2143
2022-09-26T02:25:30.893Z,68.2143
2022-09-26T02:26:30.949Z,68.2857
2022-09-26T02:27:30.981Z,68.2857
2022-09-26T02:28:30.992Z,68.2143
2022-09-26T02:29:31.025Z,68.1429
2022-09-26T02:30:31.077Z,68.2143
2022-09-26T02:31:31.159Z,68.2143
2022-09-26T02:32:31.134Z,68.2857
2022-09-26T02:33:31.169Z,68.3571
2022-09-26T02:34:31.204Z,68.3571
2022-09-26T02:35:31.267Z,68.3571
2022-09-26T02:36:31.279Z,68.3571
2022-09-26T02:37:31.309Z,68.4286
2022-09-26T02:38:31.364Z,68.4286
2022-09-26T02:39:31.405Z,68.5
2022-09-26T02:40:31.474Z,68.5714
2022-09-26T02:41:31.458Z,68.5714
2022-09-26T02:42:31.503Z,68.6429
2022-09-26T02:43:31.563Z,68.7143
2022-09-26T02:44:31.603Z,68.7143
2022-09-26T02:45:31.663Z,68.7857
2022-09-26T02:46:31.659Z,68.7857
2022-09-26T02:47:31.701Z,68.8571
2022-09-26T02:48:31.754Z,68.8571
2022-09-26T02:49:31.764Z,68.8571
2022-09-26T02:50:33.500Z,68.7857
2022-09-26T02:51:31.865Z,68.8571
2022-09-26T02:52:31.879Z,68.8571
2022-09-26T02:53:31.924Z,68.8571
2022-09-26T02:54:31.978Z,68.8571
2022-09-26T02:55:31.986Z,68.8571
2022-09-26T02:56:32.018Z,68.8571
2022-09-26T02:57:32.055Z,68.9286
2022-09-26T02:58:32.095Z,69
2022-09-26T02:59:32.144Z,69
2022-09-26T03:00:32.161Z,69
2022-09-26T03:01:32.326Z,69.0714
2022-09-26T03:02:32.230Z,69.0714
2022-09-26T03:03:32.341Z,69.1429
2022-09-26T03:04:32.352Z,69.2143
2022-09-26T03:05:32.369Z,69.2143
2022-09-26T03:06:32.389Z,69.2857
2022-09-26T03:07:32.430Z,69.2857
2022-09-26T03:08:32.468Z,69.3571
2022-09-26T03:09:32.510Z,69.3571
2022-09-26T03:10:32.566Z,69.3571
2022-09-26T03:11:32.578Z,69.4286
2022-09-26T03:12:32.606Z,69.5
2022-09-26T03:13:32.669Z,69.5714
2022-09-26T03:14:32.688Z,69.6429
2022-09-26T03:15:32.716Z,69.7143
2022-09-26T03:16:32.834Z,69.7143
2022-09-26T03:17:32.786Z,69.7143
2022-09-26T03:18:32.838Z,69.7857
2022-09-26T03:19:32.851Z,69.8571
2022-09-26T03:20:32.891Z,69.8571
2022-09-26T03:21:36.770Z,69.9286
2022-09-26T03:22:32.959Z,70
2022-09-26T03:23:33.014Z,70.0714
2022-09-26T03:24:33.019Z,70.1429
2022-09-26T03:25:33.054Z,70.1429
2022-09-26T03:26:33.115Z,70.1429
2022-09-26T03:27:33.133Z,70.1429
2022-09-26T03:28:37.486Z,70.1429
2022-09-26T03:29:33.212Z,70.1429
2022-09-26T03:30:33.292Z,70.1429
2022-09-26T03:31:33.320Z,70.1429
2022-09-26T03:32:33.329Z,70.2143
2022-09-26T03:33:33.357Z,70.2143
2022-09-26T03:34:33.389Z,70.2143
2022-09-26T03:35:33.447Z,70.2143
2022-09-26T03:36:33.456Z,70.2143
2022-09-26T03:37:33.494Z,70.2143
2022-09-26T03:38:33.535Z,70.2143
2022-09-26T03:39:33.560Z,70.2143
2022-09-26T03:40:33.742Z,70.2143
2022-09-26T03:41:33.649Z,70.2857
2022-09-26T03:42:33.665Z,70.2857
2022-09-26T03:43:33.706Z,70.2857
2022-09-26T03:44:33.738Z,70.3571
2022-09-26T03:45:33.827Z,70.3571
2022-09-26T03:46:37.717Z,70.3571
2022-09-26T03:47:33.846Z,70.3571
2022-09-26T03:48:33.870Z,70.3571
2022-09-26T03:49:33.901Z,70.3571
2022-09-26T03:50:33.937Z,70.3571
2022-09-26T03:51:33.995Z,70.4286
2022-09-26T03:52:34.003Z,70.4286
2022-09-26T03:53:34.039Z,70.4286
2022-09-26T03:54:34.073Z,70.4286
2022-09-26T03:55:34.110Z,70.5
2022-09-26T03:56:34.164Z,70.5
2022-09-26T03:57:34.207Z,70.5
2022-09-26T03:58:34.221Z,70.5
2022-09-26T03:59:34.261Z,70.4286
2022-09-26T04:00:34.324Z,70.3571
2022-09-26T04:01:34.397Z,70.3571
2022-09-26T04:02:34.424Z,70.4286
2022-09-26T04:03:34.403Z,70.4286
2022-09-26T04:04:34.448Z,70.4286
2022-09-26T04:05:34.482Z,70.5
2022-09-26T04:06:34.525Z,70.5
2022-09-26T04:07:34.587Z,70.5
2022-09-26T04:08:34.605Z,70.5
2022-09-26T04:09:34.634Z,70.5714
2022-09-26T04:10:34.669Z,70.5714
2022-09-26T04:11:34.715Z,70.6429
2022-09-26T04:12:34.768Z,70.5714
2022-09-26T04:13:50.669Z,70.5
2022-09-26T04:14:34.817Z,70.5
2022-09-26T04:15:34.853Z,70.3571
2022-09-26T04:16:34.928Z,70.3571
2022-09-26T04:17:34.950Z,70.2857
2022-09-26T04:18:34.958Z,70.2857
2022-09-26T04:19:34.996Z,70.1429
2022-09-26T04:20:35.026Z,69.9286
2022-09-26T04:21:35.051Z,69.7143
2022-09-26T04:22:35.102Z,69.6429
2022-09-26T04:23:35.116Z,69.6429
2022-09-26T04:24:35.172Z,69.6429
2022-09-26T04:25:35.191Z,69.6429
2022-09-26T04:26:35.227Z,69.6429
2022-09-26T04:27:35.285Z,69.6429
2022-09-26T04:28:35.300Z,69.4286
2022-09-26T04:29:35.357Z,69.2143
2022-09-26T04:30:35.372Z,69.1429
2022-09-26T04:31:35.550Z,69
2022-09-26T04:32:35.445Z,68.9286
2022-09-26T04:33:35.507Z,69
2022-09-26T04:34:35.515Z,69.1429
2022-09-26T04:35:35.567Z,69.1429
2022-09-26T04:36:35.583Z,69.1429
2022-09-26T04:37:35.618Z,69.1429
2022-09-26T04:38:35.665Z,69.0714
2022-09-26T04:39:35.708Z,69.0714
2022-09-26T04:40:39.525Z,69.1429
2022-09-26T04:41:35.778Z,68.9286
2022-09-26T04:42:35.841Z,68.8571
2022-09-26T04:43:35.855Z,68.6429
2022-09-26T04:44:35.906Z,68.5714
2022-09-26T04:45:36.028Z,68.5
2022-09-26T04:46:35.980Z,68.5
2022-09-26T04:47:36.026Z,68.5
2022-09-26T04:48:36.043Z,68.5714
2022-09-26T04:49:36.091Z,68.7143
2022-09-26T04:50:36.124Z,68.8571
2022-09-26T04:51:36.154Z,69.2143
2022-09-26T04:52:36.202Z,69.3571
2022-09-26T04:53:36.234Z,69.6429
2022-09-26T04:54:36.252Z,69.9286
2022-09-26T04:55:36.287Z,70.0714
2022-09-26T04:56:36.346Z,70.2857
2022-09-26T04:57:36.358Z,70.4286
2022-09-26T04:58:36.397Z,70.5714
2022-09-26T04:59:36.430Z,70.6429
2022-09-26T05:00:36.490Z,70.7143
2022-09-26T05:01:36.617Z,70.7857
2022-09-26T05:02:36.585Z,70.8571
2022-09-26T05:03:36.581Z,70.9286
2022-09-26T05:04:36.624Z,71
2022-09-26T05:05:36.652Z,70.7857
2022-09-26T05:06:36.702Z,70.5714
2022-09-26T05:07:36.730Z,70.4286
2022-09-26T05:08:36.744Z,70.2143
2022-09-26T05:09:36.777Z,70.0714
2022-09-26T05:10:36.817Z,70
2022-09-26T05:11:36.870Z,69.8571
2022-09-26T05:12:36.909Z,69.7857
2022-09-26T05:13:36.919Z,69.7857
2022-09-26T05:14:36.949Z,69.9286
2022-09-26T05:15:36.986Z,70.2143
2022-09-26T05:16:37.087Z,70.3571
2022-09-26T05:17:37.088Z,70.5
2022-09-26T05:18:37.115Z,70.5714
2022-09-26T05:19:37.134Z,70.5714
2022-09-26T05:20:37.180Z,70.4286
2022-09-26T05:21:37.346Z,70.2857
2022-09-26T05:22:37.258Z,70.3571
2022-09-26T05:23:42.163Z,70.5
2022-09-26T05:24:37.315Z,70.5714
2022-09-26T05:25:37.343Z,70.7143
2022-09-26T05:26:37.373Z,70.9286
2022-09-26T05:27:37.437Z,71
2022-09-26T05:28:37.447Z,71.1429
2022-09-26T05:29:37.493Z,71.1429
2022-09-26T05:30:37.540Z,71.2143
2022-09-26T05:31:38.115Z,71.2857
2022-09-26T05:32:37.581Z,71.2857
2022-09-26T05:33:37.647Z,71.2857
2022-09-26T05:34:37.654Z,71.3571
2022-09-26T05:35:37.679Z,71.2857
2022-09-26T05:36:37.725Z,71.2857
2022-09-26T05:37:37.757Z,71.2857
2022-09-26T05:38:37.810Z,71.2857
2022-09-26T05:39:42.266Z,71.2857
2022-09-26T05:40:38.006Z,71.1429
2022-09-26T05:41:37.916Z,71.1429
2022-09-26T05:42:37.932Z,71.1429
2022-09-26T05:43:37.992Z,71.2143
2022-09-26T05:44:38.015Z,71.2143
2022-09-26T05:45:38.058Z,71.2143
2022-09-26T05:46:38.198Z,71.1429
2022-09-26T05:47:38.116Z,71.0714
2022-09-26T05:48:38.180Z,70.9286
2022-09-26T05:49:38.205Z,70.8571
2022-09-26T05:50:42.838Z,70.7857
2022-09-26T05:51:38.259Z,70.7143
2022-09-26T05:52:38.301Z,70.7143
2022-09-26T05:53:38.337Z,70.6429
2022-09-26T05:54:38.368Z,70.5714
2022-09-26T05:55:38.424Z,70.5
2022-09-26T05:56:38.438Z,70.5
2022-09-26T05:57:38.478Z,70.4286
2022-09-26T05:58:38.513Z,70.4286
2022-09-26T05:59:38.557Z,70.3571
2022-09-26T06:00:38.674Z,70.4286
2022-09-26T06:01:38.761Z,70.5714
2022-09-26T06:02:38.692Z,70.7143
2022-09-26T06:03:38.688Z,70.7143
2022-09-26T06:04:38.752Z,70.7143
2022-09-26T06:05:38.785Z,70.7857
2022-09-26T06:06:38.810Z,70.7857
2022-09-26T06:07:38.837Z,70.7857
2022-09-26T06:08:38.870Z,70.8571
2022-09-26T06:09:38.929Z,70.8571
2022-09-26T06:10:38.935Z,70.9286
2022-09-26T06:11:38.976Z,70.9286
2022-09-26T06:12:39.018Z,71
2022-09-26T06:13:39.058Z,71
2022-09-26T06:14:39.098Z,71
2022-09-26T06:15:39.139Z,71.0714
2022-09-26T06:16:39.256Z,71.1429
2022-09-26T06:17:39.199Z,71.1429
2022-09-26T06:18:39.231Z,71.2143
2022-09-26T06:19:39.271Z,71.2143
2022-09-26T06:20:39.305Z,71.2143
2022-09-26T06:21:39.366Z,71.2857
2022-09-26T06:22:39.378Z,71.2857
2022-09-26T06:23:39.418Z,71.2857
2022-09-26T06:24:39.454Z,71.2857
2022-09-26T06:25:39.491Z,71.2143
2022-09-26T06:26:39.546Z,71.2143
2022-09-26T06:27:39.564Z,71.2857
2022-09-26T06:28:39.596Z,71.2857
2022-09-26T06:29:39.630Z,71.2857
2022-09-26T06:30:39.657Z,71.2857
2022-09-26T06:31:39.797Z,71.2857
2022-09-26T06:32:39.716Z,71.2143
2022-09-26T06:33:39.752Z,71.2143
2022-09-26T06:34:39.783Z,71.1429
2022-09-26T06:35:39.813Z,71.1429
2022-09-26T06:36:39.872Z,71.1429
2022-09-26T06:37:39.876Z,71.0714
2022-09-26T06:38:39.939Z,71.0714
2022-09-26T06:39:39.973Z,71
2022-09-26T06:40:40.103Z,70.9286
2022-09-26T06:41:40.018Z,70.9286
2022-09-26T06:42:40.075Z,70.7857
2022-09-26T06:43:40.089Z,70.7857
2022-09-26T06:45:40.157Z,70.7143
2022-09-26T06:46:40.262Z,70.7143
2022-09-26T06:47:40.244Z,70.6429
2022-09-26T06:48:40.255Z,70.5714
2022-09-26T06:49:40.286Z,70.4286
2022-09-26T06:50:40.323Z,70.3571
2022-09-26T06:51:40.380Z,70.2857
2022-09-26T06:52:40.392Z,70.2143
2022-09-26T06:53:40.426Z,70.0714
2022-09-26T06:54:40.487Z,70.0714
2022-09-26T06:55:40.500Z,70.0714
2022-09-26T06:56:40.532Z,70
2022-09-26T06:57:40.569Z,69.9286
2022-09-26T06:58:40.602Z,69.8571
2022-09-26T06:59:40.652Z,69.7857
2022-09-26T07:00:40.799Z,69.7143
2022-09-26T07:01:40.799Z,69.7143
2022-09-26T07:02:40.739Z,69.7857
2022-09-26T07:03:45.163Z,69.7857
2022-09-26T07:04:40.801Z,69.7143
2022-09-26T07:05:40.868Z,69.6429
2022-09-26T07:06:40.871Z,69.5714
2022-09-26T07:07:40.902Z,69.5
2022-09-26T07:09:01.556Z,69.5714
2022-09-26T07:09:40.979Z,69.4286
2022-09-26T07:10:41.033Z,69.2857
2022-09-26T07:11:56.155Z,69.2143
2022-09-26T07:12:41.099Z,69.1429
2022-09-26T07:13:41.135Z,69
2022-09-26T07:14:41.199Z,68.5
2022-09-26T07:15:41.202Z,68.2857
2022-09-26T07:16:41.332Z,67.8571
2022-09-26T07:17:41.264Z,67.5714
2022-09-26T07:18:41.292Z,67.4286
2022-09-26T07:19:41.349Z,67.3571
2022-09-26T07:20:41.370Z,67.2143
2022-09-26T07:21:41.408Z,67.2143
2022-09-26T07:22:41.442Z,67.2857
2022-09-26T07:23:41.472Z,67.2857
2022-09-26T07:24:41.523Z,67.3571
2022-09-26T07:25:41.548Z,67.3571
2022-09-26T07:26:41.571Z,67.2143
2022-09-26T07:27:41.606Z,67
2022-09-26T07:28:41.644Z,66.7857
2022-09-26T07:29:41.697Z,66.6429
2022-09-26T07:30:41.708Z,66.4286
2022-09-26T07:31:41.794Z,66.2143
2022-09-26T07:32:41.771Z,66.0714
2022-09-26T07:33:41.805Z,66
2022-09-26T07:34:41.863Z,66.1429
2022-09-26T07:35:41.864Z,66.2857
2022-09-26T07:36:41.895Z,66.2857
2022-09-26T07:37:41.931Z,66.0714
2022-09-26T07:38:41.966Z,66.0714
2022-09-26T07:39:42.033Z,66.1429
2022-09-26T07:40:42.100Z,66.1429
2022-09-26T07:41:42.081Z,66
2022-09-26T07:42:42.129Z,65.7143
2022-09-26T07:44:30.276Z,65.4286
2022-09-26T07:45:20.887Z,65
2022-09-26T07:45:42.220Z,64.7143
2022-09-26T07:46:42.270Z,64.5
2022-09-26T07:47:42.290Z,64.7143
2022-09-26T07:48:42.325Z,64.7857
2022-09-26T07:49:42.352Z,65.0714
2022-09-26T07:50:42.408Z,64.4286
2022-09-26T07:51:42.420Z,64.2143
2022-09-26T07:52:42.456Z,64.1429
2022-09-26T07:53:42.489Z,64.1429
2022-09-26T07:54:42.517Z,64.2143
2022-09-26T07:55:42.578Z,63.8571
2022-09-26T07:56:42.594Z,63.6429
2022-09-26T07:57:42.627Z,63.3571
2022-09-26T07:58:42.667Z,63.4286
2022-09-26T07:59:42.698Z,63.6429
2022-09-26T08:00:42.760Z,63.6429
2022-09-26T08:01:42.784Z,63.5714
2022-09-26T08:02:43.037Z,63.4286
2022-09-26T08:03:42.848Z,63.5714
2022-09-26T08:04:42.896Z,63.5
2022-09-26T08:05:42.917Z,63.5
2022-09-26T08:06:42.952Z,63.3571
2022-09-26T08:07:42.993Z,63.1429
2022-09-26T08:08:43.023Z,62.8571
2022-09-26T08:09:43.044Z,62.5
2022-09-26T08:10:43.081Z,62.5714
2022-09-26T08:11:43.121Z,62.2857
2022-09-26T08:12:43.180Z,62
2022-09-26T08:13:43.193Z,61.7857
2022-09-26T08:14:43.239Z,62.1429
2022-09-26T08:15:43.279Z,61.7857
2022-09-26T08:16:43.300Z,61.5
2022-09-26T08:17:43.352Z,60.7857
2022-09-26T08:18:43.369Z,60.2857
2022-09-26T08:19:43.395Z,60.4286
2022-09-26T08:20:43.435Z,60.6429
2022-09-26T08:21:43.465Z,60.7143
2022-09-26T08:22:43.522Z,60.9286
2022-09-26T08:23:43.539Z,60.5714
2022-09-26T08:24:43.575Z,59.9286
2022-09-26T08:25:43.609Z,60.1429
2022-09-26T08:26:44.631Z,59.9286
2022-09-26T08:27:43.816Z,59.7143
2022-09-26T08:28:43.705Z,60.0714
2022-09-26T08:29:43.740Z,60.2143
2022-09-26T08:30:43.772Z,60
2022-09-26T08:31:43.865Z,60
2022-09-26T08:32:43.859Z,59.2857
2022-09-26T08:33:43.890Z,59
2022-09-26T08:34:43.901Z,58.2143
2022-09-26T08:35:43.936Z,57.9286
2022-09-26T08:36:43.985Z,58.2143
2022-09-26T08:37:44.015Z,58.7857
2022-09-26T08:38:44.045Z,59.2143
2022-09-26T08:39:44.061Z,58.6429
2022-09-26T08:40:44.161Z,58.2857
2022-09-26T08:41:44.124Z,58.5714
2022-09-26T08:42:44.182Z,58
2022-09-26T08:43:44.199Z,57.6429
2022-09-26T08:44:44.260Z,57.8571
2022-09-26T08:45:47.496Z,57.7143
2022-09-26T08:46:44.348Z,58
2022-09-26T08:47:44.341Z,58.0714
2022-09-26T08:48:44.370Z,58.3571
2022-09-26T08:49:44.427Z,58.9286
2022-09-26T08:50:44.452Z,59.4286
2022-09-26T08:51:44.493Z,58.6429
2022-09-26T08:52:44.524Z,57.7143
2022-09-26T08:53:44.549Z,57.4286
2022-09-26T08:54:44.600Z,57.2857
2022-09-26T08:55:44.606Z,57.5714
2022-09-26T08:56:44.638Z,57.2143
2022-09-26T08:57:44.677Z,57.4286
2022-09-26T08:58:44.709Z,57.6429
2022-09-26T08:59:44.764Z,57.7857
2022-09-26T09:00:44.801Z,58
2022-09-26T09:01:44.957Z,57.7143
2022-09-26T09:02:45.091Z,57.7857
2022-09-26T09:03:44.877Z,57.7143
2022-09-26T09:04:44.907Z,57
2022-09-26T09:05:44.952Z,57.4286
2022-09-26T09:06:45.031Z,57.6429
2022-09-26T09:07:45.012Z,57.1429
2022-09-26T09:08:45.047Z,56.7143
2022-09-26T09:09:45.098Z,56.7143
2022-09-26T09:10:45.108Z,57.0714
2022-09-26T09:11:49.061Z,57.7143
2022-09-26T09:12:45.175Z,57.3571
2022-09-26T09:13:45.203Z,57.2143
2022-09-26T09:14:45.262Z,57.2143
2022-09-26T09:15:45.339Z,56.8571
2022-09-26T09:16:45.334Z,56.2143
2022-09-26T09:17:45.344Z,56.3571
2022-09-26T09:18:45.372Z,55.7857
2022-09-26T09:19:45.412Z,56.0714
2022-09-26T09:20:45.474Z,55.6429
2022-09-26T09:21:45.494Z,55.7143
2022-09-26T09:22:45.518Z,56.2143
2022-09-26T09:23:45.546Z,55.7857
2022-09-26T09:24:45.594Z,55.3571
2022-09-26T09:25:45.607Z,55.3571
2022-09-26T09:27:53.640Z,56
2022-09-26T09:28:45.711Z,55.5714
2022-09-26T09:29:49.188Z,55.2857
2022-09-26T09:30:45.779Z,54.7857
2022-09-26T09:31:45.891Z,53.8571
2022-09-26T09:32:45.843Z,53.7143
2022-09-26T09:33:45.876Z,53.7857
2022-09-26T09:34:50.129Z,54.2857
2022-09-26T09:35:45.925Z,53.8571
2022-09-26T09:36:45.970Z,53.5714
2022-09-26T09:37:46.001Z,52.9286
2022-09-26T09:38:46.064Z,52.0714
2022-09-26T09:39:46.095Z,51.7857
2022-09-26T09:40:46.166Z,51.5714
2022-09-26T09:41:46.144Z,51.7857
2022-09-26T09:42:46.180Z,51.7857
2022-09-26T09:43:46.240Z,51.6429
2022-09-26T09:44:47.010Z,51.6429
2022-09-26T09:45:46.286Z,51.9286
2022-09-26T09:46:46.396Z,51.7857
2022-09-26T09:47:46.380Z,51.8571
2022-09-26T09:48:46.394Z,52.3571
2022-09-26T09:49:46.435Z,52.2857
2022-09-26T09:50:46.464Z,53.0714
2022-09-26T09:51:46.503Z,52.4286
2022-09-26T09:52:46.575Z,52.7143
2022-09-26T09:53:46.563Z,52.1429
2022-09-26T09:54:46.592Z,51.5714
2022-09-26T09:55:46.655Z,51.7857
2022-09-26T09:56:46.648Z,51.8571
2022-09-26T09:57:46.687Z,52.0714
2022-09-26T09:58:46.720Z,51.8571
2022-09-26T09:59:46.779Z,52.0714
2022-09-26T10:00:50.475Z,51.4286
2022-09-26T10:01:46.835Z,51.2857
2022-09-26T10:02:46.993Z,51.7857
2022-09-26T10:03:46.900Z,50.5714
2022-09-26T10:04:46.934Z,50.4286
2022-09-26T10:05:46.970Z,51.2143
2022-09-26T10:06:47.498Z,50.2857
2022-09-26T10:07:47.033Z,49.0714
2022-09-26T10:08:47.068Z,48.5
2022-09-26T10:09:47.101Z,48.2143
2022-09-26T10:10:47.133Z,48.1429
2022-09-26T10:11:51.878Z,47.5
2022-09-26T10:12:47.210Z,47.4286
2022-09-26T10:13:47.248Z,47.9286
2022-09-26T10:14:47.283Z,47.7857
2022-09-26T10:15:47.387Z,48.1429
2022-09-26T10:16:47.374Z,48.2857
2022-09-26T10:18:06.526Z,48.5714
2022-09-26T10:18:47.417Z,48.7857
2022-09-26T10:19:47.454Z,47
2022-09-26T10:20:47.480Z,46.9286
2022-09-26T10:21:47.533Z,47.0714
2022-09-26T10:22:47.553Z,46.8571
2022-09-26T10:23:47.587Z,46.2143
2022-09-26T10:24:47.617Z,46.5
2022-09-26T10:25:47.652Z,46.8571
2022-09-26T10:26:47.708Z,47.4286
2022-09-26T10:27:47.721Z,48.2143
2022-09-26T10:28:47.862Z,48.1429
2022-09-26T10:29:47.802Z,48.1429
2022-09-26T10:30:47.929Z,48.1429
2022-09-26T10:31:47.903Z,47.9286
2022-09-26T10:32:50.701Z,48.2143
2022-09-26T10:33:47.930Z,48.6429
2022-09-26T10:34:47.983Z,48.9286
2022-09-26T10:35:47.999Z,48.4286
2022-09-26T10:36:48.031Z,48.7857
2022-09-26T10:37:48.088Z,48.7143
2022-09-26T10:38:48.130Z,49
2022-09-26T10:39:48.121Z,49.2143
2022-09-26T10:40:48.430Z,49.1429
2022-09-26T10:41:48.196Z,48.8571
2022-09-26T10:42:48.253Z,48.8571
2022-09-26T10:43:48.265Z,49.0714
2022-09-26T10:44:48.297Z,49.5714
2022-09-26T10:45:48.330Z,50.4286
2022-09-26T10:46:48.428Z,50.4286
2022-09-26T10:47:48.412Z,50.7143
2022-09-26T10:48:48.639Z,50.2143
2022-09-26T10:49:48.447Z,50
2022-09-26T10:50:48.478Z,50.0714
2022-09-26T10:51:48.518Z,49.6429
2022-09-26T10:52:48.539Z,49.2143
2022-09-26T10:53:48.595Z,48.5714
2022-09-26T10:54:48.599Z,48.3571
2022-09-26T10:55:48.624Z,48.6429
2022-09-26T10:56:48.682Z,48.9286
2022-09-26T10:57:48.684Z,48.7143
2022-09-26T10:58:48.779Z,48.6429
2022-09-26T10:59:48.739Z,48.3571
2022-09-26T11:00:48.775Z,48.4286
2022-09-26T11:01:48.915Z,48.7143
2022-09-26T11:02:48.849Z,48.9286
2022-09-26T11:03:49.004Z,49
2022-09-26T11:04:48.901Z,48.2857
2022-09-26T11:05:48.927Z,48.8571
2022-09-26T11:06:48.979Z,49.2143
2022-09-26T11:07:49.000Z,49.3571
2022-09-26T11:08:49.023Z,49.2857
2022-09-26T11:09:49.046Z,48.5714
2022-09-26T11:10:49.093Z,48.7143
2022-09-26T11:11:49.125Z,47.5714
2022-09-26T11:12:49.138Z,47.7857
2022-09-26T11:13:49.168Z,47.2857
2022-09-26T11:14:49.205Z,47.2143
2022-09-26T11:15:49.294Z,47.2143
2022-09-26T11:16:49.268Z,46.6429
2022-09-26T11:17:49.302Z,46.7857
2022-09-26T11:18:49.334Z,47.4286
2022-09-26T11:19:54.469Z,47.4286
2022-09-26T11:20:49.423Z,47.2857
2022-09-26T11:21:49.434Z,46.9286
2022-09-26T11:22:49.478Z,46.7143
2022-09-26T11:23:49.490Z,46.7143
2022-09-26T11:24:49.522Z,46.4286
2022-09-26T11:25:52.277Z,46.5714
2022-09-26T11:26:49.610Z,46.2143
2022-09-26T11:27:49.609Z,46.1429
2022-09-26T11:28:49.633Z,46.4286
2022-09-26T11:29:49.676Z,46.0714
2022-09-26T11:30:49.758Z,45.7143
2022-09-26T11:31:49.747Z,46.5
2022-09-26T11:32:49.786Z,46.5714
2022-09-26T11:33:49.796Z,45.9286
2022-09-26T11:34:49.837Z,46
2022-09-26T11:35:49.871Z,46.8571
2022-09-26T11:36:49.902Z,47
2022-09-26T11:37:49.958Z,46.7857
2022-09-26T11:38:49.999Z,47.1429
2022-09-26T11:39:50.000Z,46.4286
2022-09-26T11:40:50.185Z,46.2857
2022-09-26T11:41:50.056Z,46.4286
2022-09-26T11:42:50.098Z,45.7143
2022-09-26T11:43:50.164Z,46.0714
2022-09-26T11:44:50.157Z,46.8571
2022-09-26T11:45:50.184Z,46
2022-09-26T11:46:50.297Z,46.2143
2022-09-26T11:47:50.249Z,45.7857
2022-09-26T11:48:50.309Z,45.6429
2022-09-26T11:49:50.332Z,46.6429
2022-09-26T11:50:50.346Z,45.7857
2022-09-26T11:51:50.383Z,46
2022-09-26T11:52:50.420Z,46.0714
2022-09-26T11:53:50.443Z,45.2143
2022-09-26T11:54:50.497Z,45.8571
2022-09-26T11:55:50.503Z,46.3571
2022-09-26T11:56:50.531Z,47.2143
2022-09-26T11:57:50.556Z,47
2022-09-26T11:58:50.587Z,47.1429
2022-09-26T11:59:50.637Z,47.4286
2022-09-26T12:00:50.641Z,46.2857
2022-09-26T12:01:50.673Z,45.7143
2022-09-26T12:02:50.795Z,45.8571
2022-09-26T12:03:50.873Z,46.2143
2022-09-26T12:04:50.763Z,46.3571
2022-09-26T12:05:50.799Z,46
2022-09-26T12:06:50.821Z,45.8571
2022-09-26T12:07:50.860Z,46.0714
2022-09-26T12:08:50.918Z,46.4286
2022-09-26T12:09:50.950Z,46.2143
2022-09-26T12:10:50.957Z,46
2022-09-26T12:11:50.995Z,46
2022-09-26T12:12:51.028Z,46.2143
2022-09-26T12:13:51.057Z,46.5714
2022-09-26T12:14:51.114Z,46.7857
2022-09-26T12:15:51.213Z,46.7857
2022-09-26T12:16:51.155Z,46.5714
2022-09-26T12:17:51.183Z,46.1429
2022-09-26T12:18:51.215Z,46.1429
2022-09-26T12:19:51.283Z,46.1429
2022-09-26T12:20:51.314Z,45.7857